createdAt,value
2022-12-28T00:01:53.709Z,3.42
2022-12-28T00:04:25.676Z,3.97
2022-12-28T00:06:57.592Z,3.45
2022-12-28T00:09:29.804Z,3.33
2022-12-28T00:12:01.754Z,2.80
2022-12-28T00:14:33.714Z,4.15
2022-12-28T00:17:05.709Z,3.10
2022-12-28T00:19:37.891Z,2.97
2022-12-28T00:22:09.893Z,3.13
2022-12-28T00:24:42.112Z,3.17
2022-12-28T00:27:14.073Z,3.22
2022-12-28T00:29:46.101Z,3.90
2022-12-28T00:32:18.058Z,3.13
2022-12-28T00:34:50.150Z,3.25
2022-12-28T00:37:22.084Z,3.60
2022-12-28T00:39:54.042Z,3.63
2022-12-28T00:42:26.001Z,3.30
2022-12-28T00:44:58.012Z,3.08
2022-12-28T00:47:29.939Z,3.40
2022-12-28T00:50:01.889Z,3.47
2022-12-28T00:52:33.854Z,2.95
2022-12-28T00:55:06.207Z,3.03
2022-12-28T00:57:40.992Z,2.60
2022-12-28T01:00:14.322Z,3.72
2022-12-28T01:02:46.343Z,2.58
2022-12-28T01:05:18.613Z,2.97
2022-12-28T01:07:50.767Z,2.83
2022-12-28T01:10:22.871Z,3.65
2022-12-28T01:12:55.328Z,3.22
2022-12-28T01:15:27.352Z,3.40
2022-12-28T01:17:59.327Z,2.63
2022-12-28T01:20:31.518Z,2.58
2022-12-28T01:23:03.537Z,3.03
2022-12-28T01:25:35.664Z,2.85
2022-12-28T01:28:07.639Z,3.22
2022-12-28T01:30:39.629Z,3.78
2022-12-28T01:33:11.549Z,2.70
2022-12-28T01:35:43.510Z,2.88
2022-12-28T01:38:15.471Z,2.60
2022-12-28T01:40:47.425Z,2.80
2022-12-28T01:43:29.862Z,2.85
2022-12-28T01:46:03.165Z,2.70
2022-12-28T01:48:37.101Z,3.78
2022-12-28T01:51:09.252Z,3.03
2022-12-28T01:53:41.385Z,2.97
2022-12-28T01:56:13.457Z,2.70
2022-12-28T01:58:46.539Z,3.28
2022-12-28T02:01:18.814Z,3.28
2022-12-28T02:03:50.887Z,3.72
2022-12-28T02:06:23.077Z,3.50
2022-12-28T02:09:19.019Z,3.95
2022-12-28T02:11:51.609Z,2.75
2022-12-28T02:14:23.626Z,3.63
2022-12-28T02:16:55.996Z,2.97
2022-12-28T02:19:46.115Z,2.95
2022-12-28T02:22:44.832Z,2.65
2022-12-28T02:26:03.207Z,3.00
2022-12-28T02:29:13.046Z,3.95
2022-12-28T02:32:11.077Z,3.70
2022-12-28T02:35:03.862Z,3.17
2022-12-28T02:38:05.612Z,3.80
2022-12-28T02:41:01.033Z,3.45
2022-12-28T02:43:34.559Z,3.33
2022-12-28T02:46:48.830Z,3.70
2022-12-28T02:49:46.843Z,3.40
2022-12-28T02:52:43.141Z,3.30
2022-12-28T02:56:07.643Z,4.15
2022-12-28T02:59:06.605Z,3.10
2022-12-28T03:02:24.991Z,4.05
2022-12-28T03:05:12.049Z,3.88
2022-12-28T03:08:20.626Z,3.20
2022-12-28T03:11:09.790Z,3.63
2022-12-28T03:14:03.952Z,3.47
2022-12-28T03:17:04.176Z,3.45
2022-12-28T03:20:06.107Z,4.70
2022-12-28T03:22:58.887Z,4.18
2022-12-28T03:25:58.449Z,3.58
2022-12-28T03:28:51.557Z,3.78
2022-12-28T03:31:28.390Z,4.18
2022-12-28T03:34:07.658Z,3.80
2022-12-28T03:37:02.700Z,3.28
2022-12-28T03:39:51.393Z,3.95
2022-12-28T03:42:51.595Z,3.70
2022-12-28T03:45:45.700Z,4.07
2022-12-28T03:48:20.057Z,3.90
2022-12-28T03:50:54.023Z,3.80
2022-12-28T03:53:46.143Z,3.10
2022-12-28T03:56:21.549Z,3.25
2022-12-28T03:58:54.322Z,3.25
2022-12-28T04:01:26.577Z,3.65
2022-12-28T04:03:58.641Z,3.25
2022-12-28T04:06:30.604Z,3.63
2022-12-28T04:09:03.855Z,3.50
2022-12-28T04:11:35.801Z,2.83
2022-12-28T04:14:10.872Z,3.42
2022-12-28T04:16:43.370Z,3.47
2022-12-28T04:19:15.321Z,4.13
2022-12-28T04:21:47.347Z,4.03
2022-12-28T04:24:19.396Z,3.70
2022-12-28T04:26:51.414Z,4.15
2022-12-28T04:29:23.346Z,3.65
2022-12-28T04:31:55.358Z,4.13
2022-12-28T04:34:27.308Z,4.25
2022-12-28T04:36:59.414Z,4.43
2022-12-28T04:39:55.931Z,4.80
2022-12-28T04:42:23.419Z,4.00
2022-12-28T04:44:55.470Z,4.28
2022-12-28T04:47:28.487Z,4.40
2022-12-28T04:50:00.419Z,4.60
2022-12-28T04:52:34.181Z,4.82
2022-12-28T04:55:06.572Z,4.80
2022-12-28T04:57:38.500Z,5.70
2022-12-28T05:00:11.863Z,5.70
2022-12-28T05:02:47.133Z,4.80
2022-12-28T05:05:19.088Z,6.93
2022-12-28T05:07:51.074Z,5.13
2022-12-28T05:10:23.020Z,6.57
2022-12-28T05:12:56.476Z,6.07
2022-12-28T05:15:28.388Z,5.93
2022-12-28T05:18:00.425Z,6.43
2022-12-28T05:20:32.386Z,6.25
2022-12-28T05:23:04.369Z,6.80
2022-12-28T05:25:36.355Z,6.93
2022-12-28T05:28:08.295Z,8.10
2022-12-28T05:30:40.258Z,7.32
2022-12-28T05:33:12.243Z,7.18
2022-12-28T05:35:45.499Z,6.85
2022-12-28T05:38:17.564Z,7.70
2022-12-28T05:40:49.681Z,7.07
2022-12-28T05:43:21.693Z,7.15
2022-12-28T05:45:53.619Z,6.80
2022-12-28T05:48:25.555Z,7.40
2022-12-28T05:51:04.513Z,6.72
2022-12-28T05:53:37.421Z,7.20
2022-12-28T05:56:17.076Z,7.70
2022-12-28T05:59:01.571Z,7.53
2022-12-28T06:01:38.028Z,7.57
2022-12-28T06:04:19.429Z,6.75
2022-12-28T06:06:51.401Z,6.95
2022-12-28T06:09:23.342Z,7.25
2022-12-28T06:11:55.265Z,7.20
2022-12-28T06:14:27.263Z,6.90
2022-12-28T06:16:59.353Z,6.60
2022-12-28T06:19:31.673Z,6.65
2022-12-28T06:22:03.626Z,6.45
2022-12-28T06:24:35.663Z,6.75
2022-12-28T06:27:07.605Z,7.15
2022-12-28T06:29:39.583Z,7.30
2022-12-28T06:32:11.607Z,6.90
2022-12-28T06:34:43.614Z,7.43
2022-12-28T06:37:15.649Z,7.22
2022-12-28T06:39:47.612Z,6.90
2022-12-28T06:42:19.589Z,7.63
2022-12-28T06:44:51.527Z,7.63
2022-12-28T06:47:23.542Z,7.07
2022-12-28T06:49:56.009Z,7.70
2022-12-28T06:52:27.951Z,8.30
2022-12-28T06:54:59.990Z,8.43
2022-12-28T06:57:31.945Z,8.35
2022-12-28T07:00:05.307Z,8.90
2022-12-28T07:02:37.391Z,9.32
2022-12-28T07:05:09.681Z,9.05
2022-12-28T07:07:45.565Z,9.60
2022-12-28T07:10:17.521Z,10.02
2022-12-28T07:12:49.605Z,8.82
2022-12-28T07:15:21.573Z,9.90
2022-12-28T07:17:53.530Z,10.25
2022-12-28T07:20:25.550Z,9.18
2022-12-28T07:22:57.551Z,9.50
2022-12-28T07:25:30.666Z,9.48
2022-12-28T07:28:02.665Z,9.85
2022-12-28T07:30:34.706Z,9.88
2022-12-28T07:33:06.669Z,9.63
2022-12-28T07:35:38.673Z,9.48
2022-12-28T07:38:10.590Z,10.35
2022-12-28T07:40:42.630Z,9.30
2022-12-28T07:43:14.651Z,9.05
2022-12-28T07:45:46.689Z,9.20
2022-12-28T07:48:18.741Z,9.30
2022-12-28T07:50:51.788Z,9.63
2022-12-28T07:53:23.796Z,9.52
2022-12-28T07:56:00.405Z,9.15
2022-12-28T07:58:32.552Z,8.85
2022-12-28T08:01:13.823Z,9.32
2022-12-28T08:03:46.314Z,8.70
2022-12-28T08:06:23.143Z,8.40
2022-12-28T08:08:59.929Z,8.40
2022-12-28T08:11:37.238Z,9.38
2022-12-28T08:14:10.261Z,8.48
2022-12-28T08:16:44.615Z,9.00
2022-12-28T08:19:16.550Z,8.32
2022-12-28T08:21:48.775Z,8.25
2022-12-28T08:24:21.202Z,8.60
2022-12-28T08:26:53.444Z,7.93
2022-12-28T08:29:25.571Z,8.15
2022-12-28T08:31:57.604Z,7.78
2022-12-28T08:34:29.576Z,7.70
2022-12-28T08:37:01.547Z,7.80
2022-12-28T08:39:33.615Z,7.30
2022-12-28T08:42:05.682Z,6.90
2022-12-28T08:44:37.775Z,6.95
2022-12-28T08:47:09.790Z,7.03
2022-12-28T08:49:44.509Z,6.75
2022-12-28T08:52:16.532Z,7.13
2022-12-28T08:54:48.528Z,6.50
2022-12-28T08:57:20.541Z,6.50
2022-12-28T08:59:52.507Z,6.82
2022-12-28T09:02:24.696Z,6.72
2022-12-28T09:04:56.742Z,7.20
2022-12-28T09:07:28.781Z,6.28
2022-12-28T09:10:00.762Z,7.20
2022-12-28T09:12:32.775Z,7.10
2022-12-28T09:15:05.435Z,7.20
2022-12-28T09:17:37.936Z,5.88
2022-12-28T09:20:10.837Z,6.22
2022-12-28T09:22:42.821Z,6.93
2022-12-28T09:25:14.907Z,5.82
2022-12-28T09:27:51.367Z,5.60
2022-12-28T09:30:26.571Z,5.57
2022-12-28T09:33:16.818Z,5.63
2022-12-28T09:35:48.737Z,5.47
2022-12-28T09:38:21.489Z,5.30
2022-12-28T09:40:53.535Z,5.22
2022-12-28T09:43:26.828Z,4.95
2022-12-28T09:45:58.965Z,5.13
2022-12-28T09:48:31.216Z,4.43
2022-12-28T09:51:04.833Z,4.97
2022-12-28T09:53:37.926Z,4.53
2022-12-28T09:56:35.390Z,4.40
2022-12-28T09:59:11.108Z,5.18
2022-12-28T10:01:44.991Z,5.05
2022-12-28T10:04:17.153Z,4.72
2022-12-28T10:06:49.395Z,5.03
2022-12-28T10:09:31.448Z,4.70
2022-12-28T10:12:24.710Z,4.53
2022-12-28T10:14:57.723Z,4.60
2022-12-28T10:17:30.595Z,4.93
2022-12-28T10:20:02.805Z,4.05
2022-12-28T10:22:44.889Z,4.35
2022-12-28T10:25:25.331Z,4.22
2022-12-28T10:27:58.372Z,4.40
2022-12-28T10:30:30.506Z,4.40
2022-12-28T10:33:03.715Z,4.63
2022-12-28T10:35:42.572Z,3.95
2022-12-28T10:38:26.380Z,4.60
2022-12-28T10:41:07.495Z,4.25
2022-12-28T10:44:03.445Z,4.47
2022-12-28T10:49:27.102Z,4.25
2022-12-28T10:52:17.565Z,4.50
2022-12-28T10:55:07.356Z,4.25
2022-12-28T10:58:03.006Z,4.70
2022-12-28T11:00:32.565Z,4.18
2022-12-28T11:03:19.568Z,4.32
2022-12-28T11:06:28.152Z,5.05
2022-12-28T11:09:16.906Z,5.07
2022-12-28T11:11:52.805Z,4.85
2022-12-28T11:14:36.253Z,4.63
2022-12-28T11:17:29.148Z,4.75
2022-12-28T11:20:13.349Z,5.20
2022-12-28T11:22:47.040Z,4.85
2022-12-28T11:25:22.204Z,5.28
2022-12-28T11:27:54.433Z,4.20
2022-12-28T11:30:26.639Z,4.38
2022-12-28T11:33:01.565Z,4.38
2022-12-28T11:35:39.057Z,3.72
2022-12-28T11:38:38.935Z,4.65
2022-12-28T11:41:36.762Z,4.10
2022-12-28T11:44:44.399Z,4.43
2022-12-28T11:47:16.399Z,4.03
2022-12-28T11:49:48.989Z,3.63
2022-12-28T11:52:34.321Z,4.75
2022-12-28T11:55:27.094Z,3.45
2022-12-28T11:58:42.254Z,3.58
2022-12-28T12:01:29.725Z,3.35
2022-12-28T12:04:01.881Z,3.35
2022-12-28T12:06:47.138Z,3.22
2022-12-28T12:09:22.150Z,3.38
2022-12-28T12:12:23.688Z,3.28
2022-12-28T12:15:04.644Z,3.97
2022-12-28T12:17:55.828Z,3.30
2022-12-28T12:21:03.501Z,2.97
2022-12-28T12:23:52.658Z,2.85
2022-12-28T12:26:51.001Z,2.90
2022-12-28T12:29:47.635Z,2.80
2022-12-28T12:32:44.255Z,2.72
2022-12-28T12:35:20.745Z,2.42
2022-12-28T12:37:56.893Z,2.75
2022-12-28T12:40:53.424Z,2.00
2022-12-28T12:43:40.380Z,2.35
2022-12-28T12:47:05.857Z,2.45
2022-12-28T12:49:59.270Z,2.42
2022-12-28T12:52:54.752Z,2.42
2022-12-28T12:55:41.568Z,2.70
2022-12-28T12:58:24.373Z,3.08
2022-12-28T13:01:28.188Z,2.90
2022-12-28T13:04:20.972Z,3.05
2022-12-28T13:06:59.349Z,2.83
2022-12-28T13:09:34.502Z,2.78
2022-12-28T13:12:16.197Z,3.33
2022-12-28T13:14:56.270Z,3.13
2022-12-28T13:17:29.691Z,2.60
2022-12-28T13:20:22.072Z,2.83
2022-12-28T13:22:54.968Z,2.20
2022-12-28T13:25:34.657Z,2.70
2022-12-28T13:28:06.662Z,2.95
2022-12-28T13:30:38.791Z,2.70
2022-12-28T13:33:21.920Z,3.08
2022-12-28T13:36:12.333Z,2.83
2022-12-28T13:41:26.156Z,2.80
2022-12-28T13:44:28.793Z,2.33
2022-12-28T13:47:36.582Z,2.53
2022-12-28T13:50:14.409Z,2.40
2022-12-28T13:52:55.699Z,2.90
2022-12-28T13:55:42.724Z,2.60
2022-12-28T13:58:24.872Z,2.55
2022-12-28T14:00:59.202Z,2.70
2022-12-28T14:03:39.343Z,2.88
2022-12-28T14:06:16.335Z,2.67
2022-12-28T14:08:49.085Z,2.75
2022-12-28T14:11:21.691Z,2.60
2022-12-28T14:13:55.260Z,2.70
2022-12-28T14:16:27.489Z,2.38
2022-12-28T14:19:00.832Z,2.75
2022-12-28T14:21:44.244Z,2.80
2022-12-28T14:24:17.154Z,3.05
2022-12-28T14:26:59.638Z,3.05
2022-12-28T14:29:34.447Z,3.00
2022-12-28T14:32:14.198Z,3.10
2022-12-28T14:34:49.763Z,2.97
2022-12-28T14:37:38.016Z,2.58
2022-12-28T14:40:26.924Z,3.55
2022-12-28T14:43:09.666Z,3.30
2022-12-28T14:46:06.692Z,3.20
2022-12-28T14:48:40.803Z,2.70
2022-12-28T14:51:17.498Z,3.22
2022-12-28T14:54:22.206Z,3.10
2022-12-28T14:57:03.980Z,3.42
2022-12-28T14:59:43.367Z,3.55
2022-12-28T15:02:33.838Z,3.50
2022-12-28T15:05:52.789Z,3.35
2022-12-28T15:08:27.839Z,3.38
2022-12-28T15:11:01.211Z,2.95
2022-12-28T15:13:33.368Z,3.55
2022-12-28T15:16:06.839Z,3.30
2022-12-28T15:18:46.979Z,3.13
2022-12-28T15:21:22.528Z,3.67
2022-12-28T15:23:56.734Z,3.25
2022-12-28T15:26:28.835Z,3.42
2022-12-28T15:29:05.614Z,3.38
2022-12-28T15:31:37.737Z,3.15
2022-12-28T15:34:09.806Z,3.88
2022-12-28T15:36:45.650Z,3.40
2022-12-28T15:39:17.667Z,3.78
2022-12-28T15:41:50.421Z,3.92
2022-12-28T15:44:22.397Z,3.78
2022-12-28T15:46:54.449Z,3.42
2022-12-28T15:49:26.770Z,3.53
2022-12-28T15:51:59.856Z,3.28
2022-12-28T15:54:31.997Z,3.78
2022-12-28T15:57:04.289Z,3.35
2022-12-28T15:59:36.510Z,3.47
2022-12-28T16:02:11.847Z,3.90
2022-12-28T16:04:44.195Z,4.05
2022-12-28T16:07:16.783Z,3.63
2022-12-28T16:09:48.934Z,3.78
2022-12-28T16:12:20.931Z,3.70
2022-12-28T16:14:52.946Z,4.10
2022-12-28T16:17:24.923Z,4.03
2022-12-28T16:19:57.044Z,4.18
2022-12-28T16:22:29.106Z,3.88
2022-12-28T16:25:01.099Z,3.78
2022-12-28T16:27:33.526Z,4.70
2022-12-28T16:30:06.557Z,4.03
2022-12-28T16:32:38.545Z,4.45
2022-12-28T16:35:10.537Z,4.40
2022-12-28T16:37:42.618Z,4.43
2022-12-28T16:40:14.705Z,4.15
2022-12-28T16:42:46.717Z,5.22
2022-12-28T16:45:18.676Z,3.45
2022-12-28T16:47:50.659Z,4.40
2022-12-28T16:50:22.822Z,3.80
2022-12-28T16:52:54.946Z,4.65
2022-12-28T16:55:28.891Z,5.72
2022-12-28T16:58:00.955Z,5.22
2022-12-28T17:00:32.982Z,4.80
2022-12-28T17:03:05.022Z,5.35
2022-12-28T17:05:37.970Z,5.10
2022-12-28T17:08:09.926Z,4.63
2022-12-28T17:10:42.757Z,5.32
2022-12-28T17:13:16.398Z,5.60
2022-12-28T17:15:48.928Z,5.63
2022-12-28T17:18:21.093Z,5.53
2022-12-28T17:20:53.035Z,4.75
2022-12-28T17:23:25.340Z,4.85
2022-12-28T17:25:57.319Z,4.55
2022-12-28T17:28:29.624Z,4.40
2022-12-28T17:31:11.811Z,4.80
2022-12-28T17:33:54.371Z,4.00
2022-12-28T17:36:27.027Z,3.97
2022-12-28T17:38:59.114Z,4.50
2022-12-28T17:41:31.221Z,4.57
2022-12-28T17:44:03.733Z,3.70
2022-12-28T17:46:40.854Z,3.47
2022-12-28T17:49:15.289Z,3.40
2022-12-28T17:51:48.621Z,3.83
2022-12-28T17:54:20.686Z,3.70
2022-12-28T17:56:53.194Z,3.10
2022-12-28T17:59:25.380Z,4.07
2022-12-28T18:01:58.358Z,3.10
2022-12-28T18:04:31.306Z,3.58
2022-12-28T18:07:03.937Z,3.25
2022-12-28T18:09:35.936Z,3.03
2022-12-28T18:12:08.118Z,2.97
2022-12-28T18:14:40.130Z,2.80
2022-12-28T18:17:12.161Z,3.10
2022-12-28T18:19:44.154Z,2.97
2022-12-28T18:22:16.491Z,2.67
2022-12-28T18:24:48.984Z,3.22
2022-12-28T18:27:21.079Z,3.45
2022-12-28T18:30:02.213Z,3.25
2022-12-28T18:32:34.212Z,3.58
2022-12-28T18:35:07.404Z,3.15
2022-12-28T18:37:39.406Z,3.35
2022-12-28T18:40:11.570Z,4.32
2022-12-28T18:42:43.512Z,3.22
2022-12-28T18:45:15.831Z,4.15
2022-12-28T18:47:47.796Z,3.78
2022-12-28T18:50:19.756Z,4.00
2022-12-28T18:52:51.867Z,3.53
2022-12-28T18:55:23.992Z,3.35
2022-12-28T18:57:56.000Z,4.07
2022-12-28T19:00:28.029Z,4.18
2022-12-28T19:03:00.301Z,3.38
2022-12-28T19:05:32.443Z,2.95
2022-12-28T19:08:04.794Z,4.95
2022-12-28T19:10:36.793Z,3.35
2022-12-28T19:13:08.791Z,2.90
2022-12-28T19:15:40.853Z,3.20
2022-12-28T19:18:13.253Z,3.83
2022-12-28T19:20:45.329Z,2.92
2022-12-28T19:23:17.411Z,3.72
2022-12-28T19:25:49.725Z,3.53
2022-12-28T19:28:21.737Z,2.75
2022-12-28T19:30:55.239Z,4.55
2022-12-28T19:33:30.358Z,3.22
2022-12-28T19:36:03.410Z,3.83
2022-12-28T19:38:35.411Z,3.50
2022-12-28T19:41:16.315Z,3.45
2022-12-28T19:43:48.392Z,3.65
2022-12-28T19:46:24.819Z,3.47
2022-12-28T19:48:58.631Z,3.40
2022-12-28T19:51:32.837Z,3.05
2022-12-28T19:54:05.333Z,3.30
2022-12-28T19:56:37.366Z,3.40
2022-12-28T19:59:09.393Z,3.75
2022-12-28T20:01:41.554Z,3.47
2022-12-28T20:04:14.645Z,3.33
2022-12-28T20:06:46.809Z,3.50
2022-12-28T20:09:18.801Z,4.07
2022-12-28T20:11:50.770Z,4.03
2022-12-28T20:14:25.170Z,3.60
2022-12-28T20:16:58.847Z,3.80
2022-12-28T20:19:30.960Z,3.25
2022-12-28T20:22:02.929Z,4.03
2022-12-28T20:24:34.890Z,3.33
2022-12-28T20:27:07.225Z,4.25
2022-12-28T20:29:39.606Z,3.70
2022-12-28T20:32:11.565Z,3.90
2022-12-28T20:34:43.581Z,4.45
2022-12-28T20:37:15.569Z,4.07
2022-12-28T20:39:47.577Z,3.90
2022-12-28T20:42:37.925Z,4.50
2022-12-28T20:47:41.874Z,3.28
2022-12-28T20:50:15.732Z,3.70
2022-12-28T20:52:47.669Z,3.85
2022-12-28T20:55:19.817Z,3.63
2022-12-28T20:57:53.551Z,3.72
2022-12-28T21:00:25.893Z,4.18
2022-12-28T21:02:57.986Z,3.85
2022-12-28T21:05:30.017Z,3.45
2022-12-28T21:08:01.949Z,3.47
2022-12-28T21:10:33.979Z,3.40
2022-12-28T21:13:05.972Z,3.42
2022-12-28T21:15:41.147Z,3.38
2022-12-28T21:18:13.136Z,3.90
2022-12-28T21:20:47.361Z,4.22
2022-12-28T21:23:19.456Z,3.58
2022-12-28T21:25:51.563Z,3.42
2022-12-28T21:28:23.686Z,4.10
2022-12-28T21:30:57.349Z,3.50
2022-12-28T21:33:29.382Z,3.47
2022-12-28T21:36:04.695Z,3.10
2022-12-28T21:38:39.111Z,3.22
2022-12-28T21:41:39.960Z,3.95
2022-12-28T21:44:13.801Z,3.53
2022-12-28T21:46:48.524Z,3.53
2022-12-28T21:49:21.362Z,3.78
2022-12-28T21:51:53.392Z,4.05
2022-12-28T21:54:26.319Z,3.80
2022-12-28T21:56:58.442Z,3.80
2022-12-28T21:59:33.521Z,3.78
2022-12-28T22:02:38.472Z,4.10
2022-12-28T22:05:29.207Z,3.80
2022-12-28T22:08:21.623Z,3.53
2022-12-28T22:11:15.485Z,4.22
2022-12-28T22:13:47.569Z,4.60
2022-12-28T22:16:19.767Z,4.03
2022-12-28T22:19:07.206Z,4.40
2022-12-28T22:21:39.218Z,3.95
2022-12-28T22:24:11.329Z,4.30
2022-12-28T22:26:43.338Z,4.72
2022-12-28T22:29:15.623Z,4.65
2022-12-28T22:31:47.951Z,4.97
2022-12-28T22:34:20.035Z,5.15
2022-12-28T22:36:52.024Z,5.07
2022-12-28T22:39:24.402Z,4.55
2022-12-28T22:41:56.404Z,5.10
2022-12-28T22:44:28.485Z,6.55
2022-12-28T22:47:00.462Z,5.10
2022-12-28T22:49:32.466Z,5.65
2022-12-28T22:52:04.709Z,4.88
2022-12-28T22:54:36.756Z,4.68
2022-12-28T22:57:08.725Z,5.30
2022-12-28T22:59:40.776Z,5.13
2022-12-28T23:02:12.895Z,5.65
2022-12-28T23:04:45.062Z,5.55
2022-12-28T23:07:17.173Z,5.72
2022-12-28T23:09:49.212Z,6.03
2022-12-28T23:12:21.182Z,6.68
2022-12-28T23:15:11.825Z,6.28
2022-12-28T23:17:44.249Z,6.32
2022-12-28T23:20:39.899Z,6.20
2022-12-28T23:23:30.155Z,6.40
2022-12-28T23:26:20.428Z,7.07
2022-12-28T23:28:55.839Z,6.10
2022-12-28T23:31:28.130Z,6.00
2022-12-28T23:34:00.275Z,6.13
2022-12-28T23:36:34.818Z,6.00
2022-12-28T23:39:06.766Z,6.43
2022-12-28T23:41:50.644Z,6.45
2022-12-28T23:44:25.190Z,6.32
2022-12-28T23:46:59.628Z,7.47
2022-12-28T23:49:31.922Z,6.07
2022-12-28T23:52:04.033Z,5.55
2022-12-28T23:54:36.207Z,6.50
2022-12-28T23:57:08.185Z,5.75
2022-12-28T23:59:40.140Z,6.97
